Hamlin, Pennsylvania
Current Conditions -  °F | °C
As of 12:54 PM on Tuesday 21 Oct 2014 (Local Time) from KAVP Reporting Station
Overcast Overcast  
Wind Chill: 59°   Ceiling: 4500
Heat Index: 59°   Visibility: 10mi
Dew Point: 46°   Wind: 0mph
Humidity: 62%   Direction: NA
Pressure: 29.85"   Gusts: NA
Location:  41.4°N, 75.4°W
Report Text: KAVP 211654Z 00000KT 10SM FEW028 BKN045 OVC070 15/08 A2985 RMK AO2 SLP104 T01500078
Loading
Personal Weather Stations






























Interactive Weather Map
Tropical Storm Tracking
New forecast layout! Learn more

10-Day Weather Forecast

Advertisements
Track Severe Weather on mobile